sensor_id;sensor_type;location;lat;lon;timestamp;P1;durP1;ratioP1;P2;durP2;ratioP2
65583;SDS011;62116;43.582;1.470;2023-02-18T00:01:54;36.70;;;15.85;;
65583;SDS011;62116;43.582;1.470;2023-02-18T00:04:19;32.35;;;14.48;;
65583;SDS011;62116;43.582;1.470;2023-02-18T00:06:45;30.98;;;15.38;;
65583;SDS011;62116;43.582;1.470;2023-02-18T00:09:10;35.90;;;15.88;;
65583;SDS011;62116;43.582;1.470;2023-02-18T00:11:36;31.83;;;16.45;;
65583;SDS011;62116;43.582;1.470;2023-02-18T00:14:03;40.78;;;15.70;;
65583;SDS011;62116;43.582;1.470;2023-02-18T00:16:31;28.88;;;15.30;;
65583;SDS011;62116;43.582;1.470;2023-02-18T00:18:57;31.70;;;15.05;;
65583;SDS011;62116;43.582;1.470;2023-02-18T00:21:24;31.55;;;14.52;;
65583;SDS011;62116;43.582;1.470;2023-02-18T00:23:50;25.52;;;13.45;;
65583;SDS011;62116;43.582;1.470;2023-02-18T00:26:16;28.05;;;15.02;;
65583;SDS011;62116;43.582;1.470;2023-02-18T00:28:43;29.73;;;14.10;;
65583;SDS011;62116;43.582;1.470;2023-02-18T00:31:11;27.92;;;14.32;;
65583;SDS011;62116;43.582;1.470;2023-02-18T00:33:38;26.35;;;13.82;;
65583;SDS011;62116;43.582;1.470;2023-02-18T00:36:05;27.58;;;14.00;;
65583;SDS011;62116;43.582;1.470;2023-02-18T00:38:33;28.40;;;13.85;;
65583;SDS011;62116;43.582;1.470;2023-02-18T00:40:58;28.15;;;13.85;;
65583;SDS011;62116;43.582;1.470;2023-02-18T00:43:24;23.30;;;13.15;;
65583;SDS011;62116;43.582;1.470;2023-02-18T00:45:50;28.27;;;14.52;;
65583;SDS011;62116;43.582;1.470;2023-02-18T00:48:15;27.58;;;14.15;;
65583;SDS011;62116;43.582;1.470;2023-02-18T00:50:41;30.25;;;14.55;;
65583;SDS011;62116;43.582;1.470;2023-02-18T00:53:07;31.67;;;14.80;;
65583;SDS011;62116;43.582;1.470;2023-02-18T00:55:37;36.83;;;16.02;;
65583;SDS011;62116;43.582;1.470;2023-02-18T00:58:06;33.47;;;15.98;;
65583;SDS011;62116;43.582;1.470;2023-02-18T01:00:31;36.20;;;16.23;;
65583;SDS011;62116;43.582;1.470;2023-02-18T01:02:57;32.88;;;15.57;;
65583;SDS011;62116;43.582;1.470;2023-02-18T01:05:23;32.95;;;15.30;;
65583;SDS011;62116;43.582;1.470;2023-02-18T01:07:48;31.00;;;15.57;;
65583;SDS011;62116;43.582;1.470;2023-02-18T01:10:14;34.53;;;15.35;;
65583;SDS011;62116;43.582;1.470;2023-02-18T01:12:40;28.83;;;13.90;;
65583;SDS011;62116;43.582;1.470;2023-02-18T01:15:06;32.33;;;13.77;;
65583;SDS011;62116;43.582;1.470;2023-02-18T01:17:32;28.38;;;13.65;;
65583;SDS011;62116;43.582;1.470;2023-02-18T01:19:57;27.95;;;14.15;;
65583;SDS011;62116;43.582;1.470;2023-02-18T01:22:24;29.15;;;13.40;;
65583;SDS011;62116;43.582;1.470;2023-02-18T01:24:49;25.15;;;13.05;;
65583;SDS011;62116;43.582;1.470;2023-02-18T01:27:15;26.63;;;13.23;;
65583;SDS011;62116;43.582;1.470;2023-02-18T01:29:40;26.40;;;13.93;;
65583;SDS011;62116;43.582;1.470;2023-02-18T01:32:06;31.35;;;14.40;;
65583;SDS011;62116;43.582;1.470;2023-02-18T01:34:32;27.08;;;12.82;;
65583;SDS011;62116;43.582;1.470;2023-02-18T01:36:57;25.15;;;12.10;;
65583;SDS011;62116;43.582;1.470;2023-02-18T01:39:23;31.00;;;14.43;;
65583;SDS011;62116;43.582;1.470;2023-02-18T01:41:48;28.33;;;13.13;;
65583;SDS011;62116;43.582;1.470;2023-02-18T01:44:15;27.17;;;12.30;;
65583;SDS011;62116;43.582;1.470;2023-02-18T01:46:45;25.60;;;12.40;;
65583;SDS011;62116;43.582;1.470;2023-02-18T01:49:13;25.30;;;12.60;;
65583;SDS011;62116;43.582;1.470;2023-02-18T01:52:01;25.65;;;12.35;;
65583;SDS011;62116;43.582;1.470;2023-02-18T01:54:32;27.10;;;12.88;;
65583;SDS011;62116;43.582;1.470;2023-02-18T01:59:59;36.72;;;15.80;;
65583;SDS011;62116;43.582;1.470;2023-02-18T02:02:29;34.97;;;15.75;;
65583;SDS011;62116;43.582;1.470;2023-02-18T02:04:57;38.72;;;15.02;;
65583;SDS011;62116;43.582;1.470;2023-02-18T02:07:23;31.17;;;14.50;;
65583;SDS011;62116;43.582;1.470;2023-02-18T02:09:51;27.92;;;14.27;;
65583;SDS011;62116;43.582;1.470;2023-02-18T02:12:42;30.38;;;13.35;;
65583;SDS011;62116;43.582;1.470;2023-02-18T02:15:28;29.42;;;12.65;;
65583;SDS011;62116;43.582;1.470;2023-02-18T02:29:00;21.75;;;12.77;;
65583;SDS011;62116;43.582;1.470;2023-02-18T02:37:15;29.02;;;14.77;;
65583;SDS011;62116;43.582;1.470;2023-02-18T02:50:37;28.80;;;13.45;;
65583;SDS011;62116;43.582;1.470;2023-02-18T02:53:13;26.42;;;13.60;;
65583;SDS011;62116;43.582;1.470;2023-02-18T02:55:44;32.30;;;15.27;;
65583;SDS011;62116;43.582;1.470;2023-02-18T02:58:13;30.33;;;14.20;;
65583;SDS011;62116;43.582;1.470;2023-02-18T03:00:48;28.45;;;13.90;;
65583;SDS011;62116;43.582;1.470;2023-02-18T03:03:41;29.55;;;12.80;;
65583;SDS011;62116;43.582;1.470;2023-02-18T03:14:37;25.08;;;11.75;;
65583;SDS011;62116;43.582;1.470;2023-02-18T03:17:22;25.85;;;12.10;;
65583;SDS011;62116;43.582;1.470;2023-02-18T03:19:54;25.27;;;11.98;;
65583;SDS011;62116;43.582;1.470;2023-02-18T03:22:24;22.50;;;12.20;;
65583;SDS011;62116;43.582;1.470;2023-02-18T03:24:55;23.67;;;11.80;;
65583;SDS011;62116;43.582;1.470;2023-02-18T03:29:56;24.92;;;12.18;;
65583;SDS011;62116;43.582;1.470;2023-02-18T03:32:27;28.88;;;11.73;;
65583;SDS011;62116;43.582;1.470;2023-02-18T03:34:56;23.42;;;12.05;;
65583;SDS011;62116;43.582;1.470;2023-02-18T03:37:26;26.10;;;11.90;;
65583;SDS011;62116;43.582;1.470;2023-02-18T03:39:54;24.77;;;12.05;;
65583;SDS011;62116;43.582;1.470;2023-02-18T03:42:24;21.42;;;11.82;;
65583;SDS011;62116;43.582;1.470;2023-02-18T03:44:51;21.48;;;11.60;;
65583;SDS011;62116;43.582;1.470;2023-02-18T03:47:17;23.23;;;11.63;;
65583;SDS011;62116;43.582;1.470;2023-02-18T03:49:42;22.02;;;11.02;;
65583;SDS011;62116;43.582;1.470;2023-02-18T03:52:08;29.27;;;12.15;;
65583;SDS011;62116;43.582;1.470;2023-02-18T03:54:33;23.33;;;11.07;;
65583;SDS011;62116;43.582;1.470;2023-02-18T03:56:59;19.02;;;11.00;;
65583;SDS011;62116;43.582;1.470;2023-02-18T03:59:24;23.25;;;11.85;;
65583;SDS011;62116;43.582;1.470;2023-02-18T04:01:49;22.95;;;11.40;;
65583;SDS011;62116;43.582;1.470;2023-02-18T04:04:15;26.73;;;11.55;;
65583;SDS011;62116;43.582;1.470;2023-02-18T04:06:40;20.38;;;11.20;;
65583;SDS011;62116;43.582;1.470;2023-02-18T04:09:06;23.60;;;11.40;;
65583;SDS011;62116;43.582;1.470;2023-02-18T04:11:34;28.67;;;11.68;;
65583;SDS011;62116;43.582;1.470;2023-02-18T04:14:00;21.75;;;11.30;;
65583;SDS011;62116;43.582;1.470;2023-02-18T04:16:26;25.52;;;12.02;;
65583;SDS011;62116;43.582;1.470;2023-02-18T04:18:51;21.63;;;11.48;;
65583;SDS011;62116;43.582;1.470;2023-02-18T04:21:17;20.90;;;11.35;;
65583;SDS011;62116;43.582;1.470;2023-02-18T04:23:42;19.05;;;11.15;;
65583;SDS011;62116;43.582;1.470;2023-02-18T04:26:07;23.88;;;11.15;;
65583;SDS011;62116;43.582;1.470;2023-02-18T04:28:33;22.00;;;11.35;;
65583;SDS011;62116;43.582;1.470;2023-02-18T04:30:58;22.15;;;11.40;;
65583;SDS011;62116;43.582;1.470;2023-02-18T04:33:24;21.83;;;11.70;;
65583;SDS011;62116;43.582;1.470;2023-02-18T04:35:49;22.52;;;11.68;;
65583;SDS011;62116;43.582;1.470;2023-02-18T04:38:14;22.52;;;11.82;;
65583;SDS011;62116;43.582;1.470;2023-02-18T04:40:40;25.15;;;11.63;;
65583;SDS011;62116;43.582;1.470;2023-02-18T04:43:05;21.88;;;11.63;;
65583;SDS011;62116;43.582;1.470;2023-02-18T04:45:31;26.77;;;12.40;;
65583;SDS011;62116;43.582;1.470;2023-02-18T04:47:56;26.05;;;11.38;;
65583;SDS011;62116;43.582;1.470;2023-02-18T04:50:21;23.95;;;11.50;;
65583;SDS011;62116;43.582;1.470;2023-02-18T04:52:47;19.02;;;11.07;;
65583;SDS011;62116;43.582;1.470;2023-02-18T04:55:12;22.90;;;11.82;;
65583;SDS011;62116;43.582;1.470;2023-02-18T04:57:38;24.98;;;11.10;;
65583;SDS011;62116;43.582;1.470;2023-02-18T05:00:04;22.80;;;10.82;;
65583;SDS011;62116;43.582;1.470;2023-02-18T05:02:32;22.20;;;11.05;;
65583;SDS011;62116;43.582;1.470;2023-02-18T05:04:57;25.65;;;11.98;;
65583;SDS011;62116;43.582;1.470;2023-02-18T05:07:23;27.02;;;11.50;;
65583;SDS011;62116;43.582;1.470;2023-02-18T05:09:48;21.95;;;10.65;;
65583;SDS011;62116;43.582;1.470;2023-02-18T05:12:14;22.15;;;11.27;;
65583;SDS011;62116;43.582;1.470;2023-02-18T05:14:39;19.92;;;10.82;;
65583;SDS011;62116;43.582;1.470;2023-02-18T05:17:05;22.75;;;11.57;;
65583;SDS011;62116;43.582;1.470;2023-02-18T05:19:30;27.83;;;12.27;;
65583;SDS011;62116;43.582;1.470;2023-02-18T05:21:55;22.70;;;11.18;;
65583;SDS011;62116;43.582;1.470;2023-02-18T05:24:21;21.98;;;10.73;;
65583;SDS011;62116;43.582;1.470;2023-02-18T05:26:46;23.95;;;11.23;;
65583;SDS011;62116;43.582;1.470;2023-02-18T05:29:12;22.80;;;10.90;;
65583;SDS011;62116;43.582;1.470;2023-02-18T05:31:37;22.00;;;10.80;;
65583;SDS011;62116;43.582;1.470;2023-02-18T05:34:03;18.98;;;10.50;;
65583;SDS011;62116;43.582;1.470;2023-02-18T05:36:28;19.80;;;10.48;;
65583;SDS011;62116;43.582;1.470;2023-02-18T05:38:54;22.08;;;10.60;;
65583;SDS011;62116;43.582;1.470;2023-02-18T05:41:19;20.98;;;10.48;;
65583;SDS011;62116;43.582;1.470;2023-02-18T05:43:45;22.38;;;10.25;;
65583;SDS011;62116;43.582;1.470;2023-02-18T05:46:28;22.17;;;10.73;;
65583;SDS011;62116;43.582;1.470;2023-02-18T05:48:54;21.17;;;10.82;;
65583;SDS011;62116;43.582;1.470;2023-02-18T05:51:19;19.75;;;10.75;;
65583;SDS011;62116;43.582;1.470;2023-02-18T05:53:45;24.05;;;11.07;;
65583;SDS011;62116;43.582;1.470;2023-02-18T05:56:10;23.58;;;11.15;;
65583;SDS011;62116;43.582;1.470;2023-02-18T05:58:35;21.77;;;10.73;;
65583;SDS011;62116;43.582;1.470;2023-02-18T06:01:01;23.58;;;10.73;;
65583;SDS011;62116;43.582;1.470;2023-02-18T06:03:26;22.02;;;11.43;;
65583;SDS011;62116;43.582;1.470;2023-02-18T06:05:52;19.38;;;10.65;;
65583;SDS011;62116;43.582;1.470;2023-02-18T06:08:18;20.58;;;10.88;;
65583;SDS011;62116;43.582;1.470;2023-02-18T06:10:46;21.20;;;10.85;;
65583;SDS011;62116;43.582;1.470;2023-02-18T06:13:11;19.23;;;10.13;;
65583;SDS011;62116;43.582;1.470;2023-02-18T06:15:37;20.73;;;10.65;;
65583;SDS011;62116;43.582;1.470;2023-02-18T06:18:04;25.75;;;10.85;;
65583;SDS011;62116;43.582;1.470;2023-02-18T06:20:32;23.45;;;10.70;;
65583;SDS011;62116;43.582;1.470;2023-02-18T06:22:57;21.52;;;10.40;;
65583;SDS011;62116;43.582;1.470;2023-02-18T06:25:23;20.77;;;10.55;;
65583;SDS011;62116;43.582;1.470;2023-02-18T06:27:48;22.67;;;10.80;;
65583;SDS011;62116;43.582;1.470;2023-02-18T06:30:14;24.77;;;11.90;;
65583;SDS011;62116;43.582;1.470;2023-02-18T06:32:39;23.42;;;12.48;;
65583;SDS011;62116;43.582;1.470;2023-02-18T06:35:05;25.42;;;11.45;;
65583;SDS011;62116;43.582;1.470;2023-02-18T06:37:30;19.58;;;10.38;;
65583;SDS011;62116;43.582;1.470;2023-02-18T06:39:56;23.63;;;10.48;;
65583;SDS011;62116;43.582;1.470;2023-02-18T06:42:21;18.70;;;10.80;;
65583;SDS011;62116;43.582;1.470;2023-02-18T06:44:47;26.58;;;11.38;;
65583;SDS011;62116;43.582;1.470;2023-02-18T06:47:12;20.88;;;10.73;;
65583;SDS011;62116;43.582;1.470;2023-02-18T06:49:37;27.73;;;10.88;;
65583;SDS011;62116;43.582;1.470;2023-02-18T06:52:03;25.20;;;11.13;;
65583;SDS011;62116;43.582;1.470;2023-02-18T06:54:29;17.63;;;10.25;;
65583;SDS011;62116;43.582;1.470;2023-02-18T06:56:54;22.45;;;10.98;;
65583;SDS011;62116;43.582;1.470;2023-02-18T06:59:20;24.10;;;10.73;;
65583;SDS011;62116;43.582;1.470;2023-02-18T07:01:46;18.88;;;10.50;;
65583;SDS011;62116;43.582;1.470;2023-02-18T07:04:11;25.25;;;12.18;;
65583;SDS011;62116;43.582;1.470;2023-02-18T07:06:37;26.20;;;12.75;;
65583;SDS011;62116;43.582;1.470;2023-02-18T07:09:02;21.70;;;11.05;;
65583;SDS011;62116;43.582;1.470;2023-02-18T07:11:28;23.67;;;11.77;;
65583;SDS011;62116;43.582;1.470;2023-02-18T07:13:53;22.65;;;11.55;;
65583;SDS011;62116;43.582;1.470;2023-02-18T07:16:18;22.00;;;11.18;;
65583;SDS011;62116;43.582;1.470;2023-02-18T07:18:44;28.95;;;12.90;;
65583;SDS011;62116;43.582;1.470;2023-02-18T07:21:10;25.55;;;11.82;;
65583;SDS011;62116;43.582;1.470;2023-02-18T07:23:36;22.52;;;12.05;;
65583;SDS011;62116;43.582;1.470;2023-02-18T07:26:08;24.25;;;11.80;;
65583;SDS011;62116;43.582;1.470;2023-02-18T07:28:35;20.15;;;11.35;;
65583;SDS011;62116;43.582;1.470;2023-02-18T07:31:01;23.33;;;11.13;;
65583;SDS011;62116;43.582;1.470;2023-02-18T07:33:27;23.25;;;10.20;;
65583;SDS011;62116;43.582;1.470;2023-02-18T07:35:56;21.00;;;11.00;;
65583;SDS011;62116;43.582;1.470;2023-02-18T07:38:23;21.98;;;10.95;;
65583;SDS011;62116;43.582;1.470;2023-02-18T07:40:49;24.27;;;11.07;;
65583;SDS011;62116;43.582;1.470;2023-02-18T07:43:15;24.70;;;10.65;;
65583;SDS011;62116;43.582;1.470;2023-02-18T07:45:41;24.45;;;11.18;;
65583;SDS011;62116;43.582;1.470;2023-02-18T07:48:07;18.40;;;10.40;;
65583;SDS011;62116;43.582;1.470;2023-02-18T07:50:32;22.73;;;10.80;;
65583;SDS011;62116;43.582;1.470;2023-02-18T07:53:00;21.75;;;10.88;;
65583;SDS011;62116;43.582;1.470;2023-02-18T07:55:27;19.35;;;10.93;;
65583;SDS011;62116;43.582;1.470;2023-02-18T07:58:13;27.63;;;11.35;;
65583;SDS011;62116;43.582;1.470;2023-02-18T08:00:42;24.70;;;11.45;;
65583;SDS011;62116;43.582;1.470;2023-02-18T08:03:07;23.33;;;11.57;;
65583;SDS011;62116;43.582;1.470;2023-02-18T08:05:33;25.05;;;11.48;;
65583;SDS011;62116;43.582;1.470;2023-02-18T08:07:58;22.77;;;11.90;;
65583;SDS011;62116;43.582;1.470;2023-02-18T08:10:24;21.63;;;11.05;;
65583;SDS011;62116;43.582;1.470;2023-02-18T08:12:49;23.02;;;11.35;;
65583;SDS011;62116;43.582;1.470;2023-02-18T08:15:14;22.95;;;10.68;;
65583;SDS011;62116;43.582;1.470;2023-02-18T08:17:40;21.50;;;11.10;;
65583;SDS011;62116;43.582;1.470;2023-02-18T08:20:05;22.98;;;11.38;;
65583;SDS011;62116;43.582;1.470;2023-02-18T08:22:31;26.08;;;12.48;;
65583;SDS011;62116;43.582;1.470;2023-02-18T08:24:57;22.27;;;11.85;;
65583;SDS011;62116;43.582;1.470;2023-02-18T08:27:22;22.42;;;11.40;;
65583;SDS011;62116;43.582;1.470;2023-02-18T08:29:48;26.17;;;10.95;;
65583;SDS011;62116;43.582;1.470;2023-02-18T08:32:13;21.67;;;11.30;;
65583;SDS011;62116;43.582;1.470;2023-02-18T08:34:39;21.83;;;12.05;;
65583;SDS011;62116;43.582;1.470;2023-02-18T08:37:04;22.25;;;11.45;;
65583;SDS011;62116;43.582;1.470;2023-02-18T08:39:36;23.00;;;11.57;;
65583;SDS011;62116;43.582;1.470;2023-02-18T08:42:03;26.15;;;12.27;;
65583;SDS011;62116;43.582;1.470;2023-02-18T08:44:28;24.40;;;12.00;;
65583;SDS011;62116;43.582;1.470;2023-02-18T08:46:54;23.08;;;12.15;;
65583;SDS011;62116;43.582;1.470;2023-02-18T08:49:19;23.73;;;11.52;;
65583;SDS011;62116;43.582;1.470;2023-02-18T08:51:47;22.08;;;11.60;;
65583;SDS011;62116;43.582;1.470;2023-02-18T08:54:14;23.33;;;12.38;;
65583;SDS011;62116;43.582;1.470;2023-02-18T08:56:39;23.38;;;11.57;;
65583;SDS011;62116;43.582;1.470;2023-02-18T08:59:05;22.25;;;12.45;;
65583;SDS011;62116;43.582;1.470;2023-02-18T09:01:31;27.33;;;11.55;;
65583;SDS011;62116;43.582;1.470;2023-02-18T09:03:56;24.80;;;13.05;;
65583;SDS011;62116;43.582;1.470;2023-02-18T09:06:21;25.83;;;12.77;;
65583;SDS011;62116;43.582;1.470;2023-02-18T09:08:47;24.27;;;12.85;;
65583;SDS011;62116;43.582;1.470;2023-02-18T09:11:13;25.92;;;12.45;;
65583;SDS011;62116;43.582;1.470;2023-02-18T09:13:39;27.27;;;12.85;;
65583;SDS011;62116;43.582;1.470;2023-02-18T09:16:06;26.00;;;12.98;;
65583;SDS011;62116;43.582;1.470;2023-02-18T09:18:44;30.10;;;12.85;;
65583;SDS011;62116;43.582;1.470;2023-02-18T09:21:12;22.10;;;12.60;;
65583;SDS011;62116;43.582;1.470;2023-02-18T09:23:38;23.77;;;12.18;;
65583;SDS011;62116;43.582;1.470;2023-02-18T09:26:05;23.75;;;12.27;;
65583;SDS011;62116;43.582;1.470;2023-02-18T09:28:32;23.42;;;12.23;;
65583;SDS011;62116;43.582;1.470;2023-02-18T09:31:02;24.75;;;12.80;;
65583;SDS011;62116;43.582;1.470;2023-02-18T09:33:33;26.73;;;12.40;;
65583;SDS011;62116;43.582;1.470;2023-02-18T09:36:03;23.15;;;11.40;;
65583;SDS011;62116;43.582;1.470;2023-02-18T09:38:29;20.33;;;10.90;;
65583;SDS011;62116;43.582;1.470;2023-02-18T09:40:54;22.35;;;11.32;;
65583;SDS011;62116;43.582;1.470;2023-02-18T09:43:26;23.50;;;11.43;;
65583;SDS011;62116;43.582;1.470;2023-02-18T09:45:55;23.08;;;11.23;;
65583;SDS011;62116;43.582;1.470;2023-02-18T09:48:31;18.85;;;10.55;;
65583;SDS011;62116;43.582;1.470;2023-02-18T09:50:59;16.98;;;10.90;;
65583;SDS011;62116;43.582;1.470;2023-02-18T09:53:25;22.67;;;11.00;;
65583;SDS011;62116;43.582;1.470;2023-02-18T09:55:52;25.95;;;12.40;;
65583;SDS011;62116;43.582;1.470;2023-02-18T09:58:27;22.60;;;11.75;;
65583;SDS011;62116;43.582;1.470;2023-02-18T10:01:03;18.85;;;11.23;;
65583;SDS011;62116;43.582;1.470;2023-02-18T10:03:31;20.10;;;10.98;;
65583;SDS011;62116;43.582;1.470;2023-02-18T10:06:01;21.52;;;11.65;;
65583;SDS011;62116;43.582;1.470;2023-02-18T10:08:34;25.17;;;11.30;;
65583;SDS011;62116;43.582;1.470;2023-02-18T10:11:02;22.38;;;11.55;;
65583;SDS011;62116;43.582;1.470;2023-02-18T10:13:30;22.88;;;11.60;;
65583;SDS011;62116;43.582;1.470;2023-02-18T10:15:57;22.25;;;10.40;;
65583;SDS011;62116;43.582;1.470;2023-02-18T10:18:27;20.88;;;10.68;;
65583;SDS011;62116;43.582;1.470;2023-02-18T10:21:05;19.40;;;10.27;;
65583;SDS011;62116;43.582;1.470;2023-02-18T10:23:36;22.02;;;10.95;;
65583;SDS011;62116;43.582;1.470;2023-02-18T10:28:31;21.20;;;9.48;;
65583;SDS011;62116;43.582;1.470;2023-02-18T10:31:08;18.23;;;9.48;;
65583;SDS011;62116;43.582;1.470;2023-02-18T10:37:06;18.45;;;10.38;;
65583;SDS011;62116;43.582;1.470;2023-02-18T10:42:03;19.15;;;10.27;;
65583;SDS011;62116;43.582;1.470;2023-02-18T10:47:38;24.70;;;10.50;;
65583;SDS011;62116;43.582;1.470;2023-02-18T10:50:18;18.85;;;9.73;;
65583;SDS011;62116;43.582;1.470;2023-02-18T10:52:54;16.67;;;9.35;;
65583;SDS011;62116;43.582;1.470;2023-02-18T10:58:29;21.30;;;10.40;;
65583;SDS011;62116;43.582;1.470;2023-02-18T11:00:55;21.33;;;10.85;;
65583;SDS011;62116;43.582;1.470;2023-02-18T11:03:25;22.05;;;10.70;;
65583;SDS011;62116;43.582;1.470;2023-02-18T11:06:02;22.02;;;9.82;;
65583;SDS011;62116;43.582;1.470;2023-02-18T11:08:38;19.55;;;11.13;;
65583;SDS011;62116;43.582;1.470;2023-02-18T11:11:21;17.48;;;9.68;;
65583;SDS011;62116;43.582;1.470;2023-02-18T11:13:53;20.92;;;10.40;;
65583;SDS011;62116;43.582;1.470;2023-02-18T11:16:21;22.73;;;10.27;;
65583;SDS011;62116;43.582;1.470;2023-02-18T11:18:48;22.77;;;10.73;;
65583;SDS011;62116;43.582;1.470;2023-02-18T11:23:48;20.50;;;10.00;;
65583;SDS011;62116;43.582;1.470;2023-02-18T11:26:16;18.33;;;10.00;;
65583;SDS011;62116;43.582;1.470;2023-02-18T11:28:49;20.08;;;9.88;;
65583;SDS011;62116;43.582;1.470;2023-02-18T11:31:18;19.88;;;9.55;;
65583;SDS011;62116;43.582;1.470;2023-02-18T11:33:48;19.35;;;9.85;;
65583;SDS011;62116;43.582;1.470;2023-02-18T11:36:23;18.88;;;9.77;;
65583;SDS011;62116;43.582;1.470;2023-02-18T11:39:33;17.17;;;9.73;;
65583;SDS011;62116;43.582;1.470;2023-02-18T11:41:55;19.98;;;9.57;;
65583;SDS011;62116;43.582;1.470;2023-02-18T11:46:58;20.27;;;10.30;;
65583;SDS011;62116;43.582;1.470;2023-02-18T11:49:26;21.92;;;9.70;;
65583;SDS011;62116;43.582;1.470;2023-02-18T11:51:51;17.70;;;9.95;;
65583;SDS011;62116;43.582;1.470;2023-02-18T11:54:25;16.65;;;10.07;;
65583;SDS011;62116;43.582;1.470;2023-02-18T11:56:56;22.35;;;10.48;;
65583;SDS011;62116;43.582;1.470;2023-02-18T11:59:35;21.58;;;9.80;;
65583;SDS011;62116;43.582;1.470;2023-02-18T12:04:47;18.48;;;9.40;;
65583;SDS011;62116;43.582;1.470;2023-02-18T12:07:30;22.25;;;9.80;;
65583;SDS011;62116;43.582;1.470;2023-02-18T12:10:18;18.27;;;10.00;;
65583;SDS011;62116;43.582;1.470;2023-02-18T12:21:29;18.60;;;8.85;;
65583;SDS011;62116;43.582;1.470;2023-02-18T12:26:52;15.40;;;8.07;;
65583;SDS011;62116;43.582;1.470;2023-02-18T12:32:29;16.63;;;7.40;;
65583;SDS011;62116;43.582;1.470;2023-02-18T12:44:33;11.25;;;5.15;;
65583;SDS011;62116;43.582;1.470;2023-02-18T12:57:47;10.10;;;4.78;;
65583;SDS011;62116;43.582;1.470;2023-02-18T13:14:23;9.10;;;5.35;;
65583;SDS011;62116;43.582;1.470;2023-02-18T13:17:00;9.95;;;5.35;;
65583;SDS011;62116;43.582;1.470;2023-02-18T13:19:39;11.50;;;6.45;;
65583;SDS011;62116;43.582;1.470;2023-02-18T13:22:28;13.27;;;6.30;;
65583;SDS011;62116;43.582;1.470;2023-02-18T13:24:55;13.50;;;5.35;;
65583;SDS011;62116;43.582;1.470;2023-02-18T13:32:50;9.05;;;5.40;;
65583;SDS011;62116;43.582;1.470;2023-02-18T13:35:30;13.30;;;5.47;;
65583;SDS011;62116;43.582;1.470;2023-02-18T13:38:18;12.88;;;5.60;;
65583;SDS011;62116;43.582;1.470;2023-02-18T13:41:04;13.77;;;6.00;;
65583;SDS011;62116;43.582;1.470;2023-02-18T13:43:31;11.43;;;6.38;;
65583;SDS011;62116;43.582;1.470;2023-02-18T13:54:15;11.63;;;5.57;;
65583;SDS011;62116;43.582;1.470;2023-02-18T13:57:20;14.02;;;5.97;;
65583;SDS011;62116;43.582;1.470;2023-02-18T14:02:07;10.43;;;5.00;;
65583;SDS011;62116;43.582;1.470;2023-02-18T14:09:58;10.23;;;4.57;;
65583;SDS011;62116;43.582;1.470;2023-02-18T14:12:27;9.80;;;4.72;;
65583;SDS011;62116;43.582;1.470;2023-02-18T14:14:59;8.95;;;5.13;;
65583;SDS011;62116;43.582;1.470;2023-02-18T14:17:29;8.63;;;4.63;;
65583;SDS011;62116;43.582;1.470;2023-02-18T14:22:30;10.82;;;4.18;;
65583;SDS011;62116;43.582;1.470;2023-02-18T14:27:32;7.55;;;3.40;;
65583;SDS011;62116;43.582;1.470;2023-02-18T14:30:01;7.90;;;3.17;;
65583;SDS011;62116;43.582;1.470;2023-02-18T14:32:43;9.10;;;3.67;;
65583;SDS011;62116;43.582;1.470;2023-02-18T14:51:37;4.82;;;2.40;;
65583;SDS011;62116;43.582;1.470;2023-02-18T14:54:09;7.57;;;2.83;;
65583;SDS011;62116;43.582;1.470;2023-02-18T14:56:38;5.80;;;2.53;;
65583;SDS011;62116;43.582;1.470;2023-02-18T14:59:14;6.50;;;2.63;;
65583;SDS011;62116;43.582;1.470;2023-02-18T15:01:40;5.38;;;2.90;;
65583;SDS011;62116;43.582;1.470;2023-02-18T15:04:05;6.65;;;2.95;;
65583;SDS011;62116;43.582;1.470;2023-02-18T15:08:57;7.03;;;2.65;;
65583;SDS011;62116;43.582;1.470;2023-02-18T15:11:24;8.48;;;2.80;;
65583;SDS011;62116;43.582;1.470;2023-02-18T15:14:07;5.18;;;2.72;;
65583;SDS011;62116;43.582;1.470;2023-02-18T15:16:44;7.93;;;2.88;;
65583;SDS011;62116;43.582;1.470;2023-02-18T15:19:12;5.85;;;2.72;;
65583;SDS011;62116;43.582;1.470;2023-02-18T15:21:42;6.78;;;3.15;;
65583;SDS011;62116;43.582;1.470;2023-02-18T15:27:09;6.70;;;3.22;;
65583;SDS011;62116;43.582;1.470;2023-02-18T15:29:37;8.27;;;3.38;;
65583;SDS011;62116;43.582;1.470;2023-02-18T15:32:14;7.97;;;3.30;;
65583;SDS011;62116;43.582;1.470;2023-02-18T15:34:44;6.28;;;3.20;;
65583;SDS011;62116;43.582;1.470;2023-02-18T15:37:13;7.65;;;3.05;;
65583;SDS011;62116;43.582;1.470;2023-02-18T15:39:39;7.70;;;3.28;;
65583;SDS011;62116;43.582;1.470;2023-02-18T15:42:08;4.00;;;2.55;;
65583;SDS011;62116;43.582;1.470;2023-02-18T15:45:04;6.47;;;2.85;;
65583;SDS011;62116;43.582;1.470;2023-02-18T15:47:34;7.22;;;2.67;;
65583;SDS011;62116;43.582;1.470;2023-02-18T15:50:05;6.65;;;2.55;;
65583;SDS011;62116;43.582;1.470;2023-02-18T15:52:40;6.53;;;2.83;;
65583;SDS011;62116;43.582;1.470;2023-02-18T15:55:08;6.93;;;2.90;;
65583;SDS011;62116;43.582;1.470;2023-02-18T15:57:38;5.93;;;3.00;;
65583;SDS011;62116;43.582;1.470;2023-02-18T16:00:15;6.18;;;3.17;;
65583;SDS011;62116;43.582;1.470;2023-02-18T16:02:50;4.93;;;2.60;;
65583;SDS011;62116;43.582;1.470;2023-02-18T16:05:17;7.28;;;2.97;;
65583;SDS011;62116;43.582;1.470;2023-02-18T16:07:55;12.07;;;3.40;;
65583;SDS011;62116;43.582;1.470;2023-02-18T16:13:00;7.78;;;3.15;;
65583;SDS011;62116;43.582;1.470;2023-02-18T16:15:30;7.55;;;3.42;;
65583;SDS011;62116;43.582;1.470;2023-02-18T16:18:01;12.40;;;3.35;;
65583;SDS011;62116;43.582;1.470;2023-02-18T16:20:29;9.95;;;3.45;;
65583;SDS011;62116;43.582;1.470;2023-02-18T16:23:00;10.70;;;3.70;;
65583;SDS011;62116;43.582;1.470;2023-02-18T16:25:43;8.05;;;3.28;;
65583;SDS011;62116;43.582;1.470;2023-02-18T16:28:12;8.70;;;3.47;;
65583;SDS011;62116;43.582;1.470;2023-02-18T16:30:38;7.20;;;3.03;;
65583;SDS011;62116;43.582;1.470;2023-02-18T16:33:05;9.43;;;3.60;;
65583;SDS011;62116;43.582;1.470;2023-02-18T16:35:31;10.65;;;3.58;;
65583;SDS011;62116;43.582;1.470;2023-02-18T16:37:57;10.57;;;3.85;;
65583;SDS011;62116;43.582;1.470;2023-02-18T16:40:33;14.35;;;3.80;;
65583;SDS011;62116;43.582;1.470;2023-02-18T16:43:21;11.57;;;3.83;;
65583;SDS011;62116;43.582;1.470;2023-02-18T16:45:52;8.93;;;3.33;;
65583;SDS011;62116;43.582;1.470;2023-02-18T16:51:04;7.13;;;3.30;;
65583;SDS011;62116;43.582;1.470;2023-02-18T16:53:33;9.13;;;3.33;;
65583;SDS011;62116;43.582;1.470;2023-02-18T16:55:59;6.15;;;3.38;;
65583;SDS011;62116;43.582;1.470;2023-02-18T16:58:25;6.07;;;3.08;;
65583;SDS011;62116;43.582;1.470;2023-02-18T17:00:51;12.00;;;3.40;;
65583;SDS011;62116;43.582;1.470;2023-02-18T17:03:17;7.30;;;3.97;;
65583;SDS011;62116;43.582;1.470;2023-02-18T17:05:43;9.85;;;3.50;;
65583;SDS011;62116;43.582;1.470;2023-02-18T17:08:19;18.92;;;3.58;;
65583;SDS011;62116;43.582;1.470;2023-02-18T17:10:51;14.68;;;3.60;;
65583;SDS011;62116;43.582;1.470;2023-02-18T17:13:19;13.95;;;3.70;;
65583;SDS011;62116;43.582;1.470;2023-02-18T17:15:47;9.65;;;3.20;;
65583;SDS011;62116;43.582;1.470;2023-02-18T17:18:15;9.43;;;3.22;;
65583;SDS011;62116;43.582;1.470;2023-02-18T17:20:41;7.30;;;3.45;;
65583;SDS011;62116;43.582;1.470;2023-02-18T17:23:08;6.22;;;3.25;;
65583;SDS011;62116;43.582;1.470;2023-02-18T17:25:38;11.15;;;2.97;;